Time;durP1;ratioP1;P1;durP2;ratioP2;P2;SDS_P1;SDS_P2;PMS_P1;PMS_P2;Temp;Humidity;BMP_temperature;BMP_pressure;BME280_temperature;BME280_humidity;BME280_pressure;Samples;Min_cycle;Max_cycle;Signal;HPM_P1;HPM_P2
2021/11/17 02:26:08;;;;;;;2.50;2.30;;;;;;;;;;5078781;28;20270;-86
2021/11/17 02:29:14;;;;;;;2.90;2.70;;;;;;;;;;5078842;28;20186;-86
2021/11/17 02:32:16;;;;;;;2.58;2.10;;;;;;;;;;5078996;28;20201;-85
2021/11/17 02:35:07;;;;;;;2.97;2.65;;;;;;;;;;5076422;28;20242;-86
2021/11/17 02:37:54;;;;;;;2.60;2.40;;;;;;;;;;5078597;28;20726;-85
2021/11/17 02:41:05;;;;;;;2.15;2.05;;;;;;;;;;5078465;28;20180;-85
2021/11/17 02:44:10;;;;;;;2.88;2.67;;;;;;;;;;5078758;28;20208;-84
2021/11/17 02:47:22;;;;;;;2.80;2.60;;;;;;;;;;5077367;28;20231;-85
2021/11/17 02:50:26;;;;;;;2.65;2.35;;;;;;;;;;5078275;28;20607;-85
2021/11/17 02:53:14;;;;;;;1.60;1.50;;;;;;;;;;5078091;28;20177;-85
2021/11/17 02:56:09;;;;;;;1.80;1.70;;;;;;;;;;5078038;28;20232;-85
2021/11/17 02:59:21;;;;;;;2.33;2.13;;;;;;;;;;5078023;28;20209;-85
2021/11/17 03:02:24;;;;;;;1.67;1.58;;;;;;;;;;5078203;28;20177;-86
2021/11/17 03:05:22;;;;;;;2.20;2.00;;;;;;;;;;5078577;28;20191;-87
2021/11/17 03:08:13;;;;;;;2.00;1.90;;;;;;;;;;5077186;28;20197;-85
2021/11/17 03:11:43;;;;;;;2.13;2.03;;;;;;;;;;5077558;28;20204;-85
2021/11/17 03:14:41;;;;;;;2.17;2.05;;;;;;;;;;5075194;28;20202;-86
2021/11/17 03:17:45;;;;;;;1.60;1.50;;;;;;;;;;5077369;28;20221;-85
2021/11/17 03:20:45;;;;;;;1.60;1.50;;;;;;;;;;5077712;28;20227;-86
2021/11/17 03:23:37;;;;;;;2.40;2.20;;;;;;;;;;5077735;28;20314;-86
2021/11/17 03:26:41;;;;;;;2.53;2.35;;;;;;;;;;5077167;28;20225;-85
2021/11/17 03:29:42;;;;;;;2.22;2.03;;;;;;;;;;5074787;28;20197;-85
2021/11/17 03:32:44;;;;;;;2.05;1.95;;;;;;;;;;5073946;28;20191;-86
2021/11/17 03:35:54;;;;;;;1.80;1.70;;;;;;;;;;5073269;28;20211;-85
2021/11/17 03:39:00;;;;;;;2.10;2.00;;;;;;;;;;5073910;28;20200;-87
2021/11/17 03:42:01;;;;;;;1.40;1.40;;;;;;;;;;5070762;28;20201;-86
2021/11/17 03:45:17;;;;;;;2.42;2.22;;;;;;;;;;5073839;28;20200;-86
2021/11/17 03:48:06;;;;;;;1.90;1.80;;;;;;;;;;5068822;28;20201;-87
2021/11/17 03:50:59;;;;;;;1.80;1.70;;;;;;;;;;5074471;28;20201;-86
2021/11/17 03:53:58;;;;;;;2.20;2.00;;;;;;;;;;5073820;28;20193;-86
2021/11/17 03:56:58;;;;;;;1.80;1.70;;;;;;;;;;5073153;28;20240;-86
2021/11/17 03:59:56;;;;;;;1.80;1.70;;;;;;;;;;5075048;28;20236;-85
2021/11/17 04:02:57;;;;;;;1.85;1.42;;;;;;;;;;5073750;28;20200;-85
2021/11/17 04:05:52;;;;;;;1.63;1.52;;;;;;;;;;5074452;28;20191;-87
2021/11/17 04:08:42;;;;;;;2.40;2.20;;;;;;;;;;5074329;28;20581;-86
2021/11/17 04:11:34;;;;;;;1.55;1.45;;;;;;;;;;5074943;28;20562;-84
2021/11/17 04:14:23;;;;;;;1.67;1.58;;;;;;;;;;5075451;28;20666;-86
2021/11/17 04:17:24;;;;;;;1.60;1.50;;;;;;;;;;5073877;28;20228;-86
2021/11/17 04:20:08;;;;;;;2.03;1.92;;;;;;;;;;5073339;28;20208;-84
2021/11/17 04:23:04;;;;;;;1.70;1.60;;;;;;;;;;5074110;28;20200;-86
2021/11/17 04:26:18;;;;;;;1.83;1.73;;;;;;;;;;5074430;28;20562;-84
2021/11/17 04:29:10;;;;;;;1.95;1.85;;;;;;;;;;5074772;28;20193;-85
2021/11/17 04:32:24;;;;;;;1.33;1.25;;;;;;;;;;5075134;28;20191;-86
2021/11/17 04:35:28;;;;;;;1.67;1.58;;;;;;;;;;5074369;28;20197;-86
2021/11/17 04:38:37;;;;;;;1.50;1.40;;;;;;;;;;5074584;28;20231;-85
2021/11/17 04:41:37;;;;;;;1.40;1.30;;;;;;;;;;5029982;28;20240;-86
2021/11/17 04:44:43;;;;;;;1.83;1.73;;;;;;;;;;5074266;28;20201;-86
2021/11/17 04:47:41;;;;;;;1.95;1.85;;;;;;;;;;5060114;28;20224;-85
2021/11/17 04:51:00;;;;;;;1.98;1.88;;;;;;;;;;5074047;28;20192;-86
2021/11/17 04:53:50;;;;;;;2.88;2.55;;;;;;;;;;5070557;28;20209;-86
2021/11/17 04:56:40;;;;;;;2.25;2.05;;;;;;;;;;5074346;28;20576;-86
2021/11/17 04:59:36;;;;;;;2.70;2.50;;;;;;;;;;5074385;28;20197;-85
2021/11/17 05:02:36;;;;;;;2.90;2.70;;;;;;;;;;5074454;28;20662;-85
2021/11/17 05:05:36;;;;;;;2.70;2.50;;;;;;;;;;5074295;28;20204;-85
2021/11/17 05:08:16;;;;;;;1.73;1.63;;;;;;;;;;5072974;28;20667;-85
2021/11/17 05:11:01;;;;;;;2.75;2.55;;;;;;;;;;5076990;28;20197;-85
2021/11/17 05:13:43;;;;;;;2.15;2.05;;;;;;;;;;5078091;28;20185;-85
2021/11/17 05:16:40;;;;;;;2.63;2.42;;;;;;;;;;5077869;28;20221;-85
2021/11/17 05:19:24;;;;;;;3.58;3.28;;;;;;;;;;5078208;28;20566;-85
2021/11/17 05:22:14;;;;;;;3.63;3.33;;;;;;;;;;5078195;28;20181;-85
2021/11/17 05:25:21;;;;;;;2.20;2.10;;;;;;;;;;5076810;28;20581;-84
2021/11/17 05:28:09;;;;;;;2.15;2.05;;;;;;;;;;5078238;28;20207;-85
2021/11/17 05:31:04;;;;;;;2.08;1.90;;;;;;;;;;5077835;28;20295;-86
2021/11/17 05:34:12;;;;;;;2.30;2.10;;;;;;;;;;5079258;28;20636;-86
2021/11/17 05:36:52;;;;;;;2.88;2.67;;;;;;;;;;5077702;28;20217;-85
2021/11/17 05:39:40;;;;;;;2.50;2.30;;;;;;;;;;5076941;28;20276;-86
2021/11/17 05:42:29;;;;;;;2.38;2.17;;;;;;;;;;5077790;28;20200;-86
2021/11/17 05:45:27;;;;;;;3.45;3.10;;;;;;;;;;5077143;28;20189;-86
2021/11/17 05:48:11;;;;;;;4.50;4.10;;;;;;;;;;5075732;28;20193;-86
2021/11/17 05:51:03;;;;;;;2.72;2.53;;;;;;;;;;5075035;28;20190;-86
2021/11/17 05:53:53;;;;;;;2.72;2.53;;;;;;;;;;5075462;28;20287;-86
2021/11/17 05:56:50;;;;;;;2.63;2.42;;;;;;;;;;5075036;28;20224;-86
2021/11/17 05:59:39;;;;;;;2.80;2.60;;;;;;;;;;5075002;28;20190;-87
2021/11/17 06:02:29;;;;;;;3.15;2.85;;;;;;;;;;5075372;28;20651;-86
2021/11/17 06:04:58;;;;;;;2.65;2.45;;;;;;;;;;5075831;28;20566;-86
2021/11/17 06:07:25;;;;;;;2.42;2.22;;;;;;;;;;5074965;28;20221;-85
2021/11/17 06:09:57;;;;;;;2.50;2.30;;;;;;;;;;5074899;28;20197;-86
2021/11/17 06:12:24;;;;;;;3.10;2.80;;;;;;;;;;5074795;28;20738;-86
2021/11/17 06:14:52;;;;;;;3.17;2.88;;;;;;;;;;5075125;28;20288;-85
2021/11/17 06:17:21;;;;;;;2.67;2.47;;;;;;;;;;5074571;28;20213;-86
2021/11/17 06:19:50;;;;;;;3.25;2.95;;;;;;;;;;5074653;28;20193;-85
2021/11/17 06:22:20;;;;;;;3.58;3.28;;;;;;;;;;5075321;28;20194;-86
2021/11/17 06:24:49;;;;;;;2.63;2.42;;;;;;;;;;5076073;28;20177;-86
2021/11/17 06:27:21;;;;;;;3.08;2.63;;;;;;;;;;5076790;28;20684;-85
2021/11/17 06:29:51;;;;;;;3.20;2.90;;;;;;;;;;5076772;28;20546;-86
2021/11/17 06:32:20;;;;;;;3.10;2.80;;;;;;;;;;5075912;28;20693;-85
2021/11/17 06:34:50;;;;;;;3.17;2.58;;;;;;;;;;5075026;28;20181;-86
2021/11/17 06:37:20;;;;;;;2.85;2.65;;;;;;;;;;5074731;28;20216;-87
2021/11/17 06:39:50;;;;;;;3.03;2.72;;;;;;;;;;5076012;28;20196;-85
2021/11/17 06:42:22;;;;;;;2.38;2.17;;;;;;;;;;5075680;28;20213;-86
2021/11/17 06:44:51;;;;;;;2.65;2.28;;;;;;;;;;5074873;28;20530;-87
2021/11/17 06:47:18;;;;;;;3.08;2.78;;;;;;;;;;5074242;28;20224;-86
2021/11/17 06:49:46;;;;;;;2.00;1.90;;;;;;;;;;5074249;28;20189;-85
2021/11/17 06:52:14;;;;;;;2.90;2.58;;;;;;;;;;5074197;28;20232;-86
2021/11/17 06:54:42;;;;;;;2.55;2.35;;;;;;;;;;5074314;28;20209;-84
2021/11/17 06:57:09;;;;;;;2.13;2.00;;;;;;;;;;5074241;28;20225;-86
2021/11/17 06:59:52;;;;;;;2.28;2.10;;;;;;;;;;5074590;28;20196;-87
2021/11/17 07:02:19;;;;;;;2.17;2.05;;;;;;;;;;5075603;28;20220;-85
2021/11/17 07:04:48;;;;;;;2.10;2.00;;;;;;;;;;5075909;28;20187;-86
2021/11/17 07:07:16;;;;;;;1.50;1.40;;;;;;;;;;5074385;28;20219;-87
2021/11/17 07:09:49;;;;;;;1.77;1.67;;;;;;;;;;5075223;28;20207;-87
2021/11/17 07:12:27;;;;;;;2.92;2.72;;;;;;;;;;5075859;28;20646;-86
2021/11/17 07:15:04;;;;;;;2.58;2.38;;;;;;;;;;5076097;28;20595;-86
2021/11/17 07:17:32;;;;;;;2.30;2.10;;;;;;;;;;5075328;28;20219;-86
2021/11/17 07:20:10;;;;;;;2.95;2.75;;;;;;;;;;5075417;28;20280;-87
2021/11/17 07:22:48;;;;;;;2.78;2.47;;;;;;;;;;5074265;28;20204;-88
2021/11/17 07:25:36;;;;;;;2.38;2.17;;;;;;;;;;5075590;28;20184;-86
2021/11/17 07:28:06;;;;;;;2.00;1.83;;;;;;;;;;5074654;28;20189;-87
2021/11/17 07:30:38;;;;;;;2.25;2.05;;;;;;;;;;5074963;28;20557;-84
2021/11/17 07:33:07;;;;;;;1.98;1.88;;;;;;;;;;5075460;28;20181;-84
2021/11/17 07:35:37;;;;;;;1.88;1.73;;;;;;;;;;5076399;28;20220;-85
2021/11/17 07:38:08;;;;;;;1.48;1.38;;;;;;;;;;5076776;28;20666;-85
2021/11/17 07:40:38;;;;;;;1.40;1.30;;;;;;;;;;5076621;28;20204;-84
2021/11/17 07:43:07;;;;;;;1.52;1.42;;;;;;;;;;5076697;28;20185;-83
2021/11/17 07:45:36;;;;;;;1.52;1.42;;;;;;;;;;5077161;28;20233;-83
2021/11/17 07:48:06;;;;;;;2.30;2.10;;;;;;;;;;5076575;28;20182;-84
2021/11/17 07:50:34;;;;;;;2.30;2.10;;;;;;;;;;5076415;28;20200;-84
2021/11/17 07:53:02;;;;;;;1.88;1.77;;;;;;;;;;5077317;28;20191;-84
2021/11/17 07:55:29;;;;;;;1.63;1.52;;;;;;;;;;5075616;28;20189;-83
2021/11/17 07:57:57;;;;;;;1.10;1.10;;;;;;;;;;5076519;28;20185;-83
2021/11/17 08:00:27;;;;;;;1.27;1.17;;;;;;;;;;5076194;28;20197;-83
2021/11/17 08:02:56;;;;;;;1.30;1.20;;;;;;;;;;5076847;28;20205;-84
2021/11/17 08:05:25;;;;;;;1.58;1.48;;;;;;;;;;5075924;28;20648;-84
2021/11/17 08:07:54;;;;;;;2.05;1.88;;;;;;;;;;5076555;28;20200;-84
2021/11/17 08:10:26;;;;;;;1.70;1.60;;;;;;;;;;5075401;28;20332;-84
2021/11/17 08:12:54;;;;;;;1.65;1.55;;;;;;;;;;5076298;28;20197;-84
2021/11/17 08:15:22;;;;;;;1.90;1.80;;;;;;;;;;5075886;28;20197;-83
2021/11/17 08:17:49;;;;;;;2.30;2.15;;;;;;;;;;5074334;28;20593;-84
2021/11/17 08:20:19;;;;;;;1.80;1.70;;;;;;;;;;5076800;28;20246;-84
2021/11/17 08:22:49;;;;;;;2.92;2.72;;;;;;;;;;5075726;28;20242;-84
2021/11/17 08:25:20;;;;;;;2.60;2.30;;;;;;;;;;5076524;28;20189;-84
2021/11/17 08:27:48;;;;;;;1.63;1.52;;;;;;;;;;5076401;28;20220;-84
2021/11/17 08:30:18;;;;;;;1.92;1.83;;;;;;;;;;5068694;28;20189;-83
2021/11/17 08:35:50;;;;;;;2.60;2.40;;;;;;;;;;5070767;28;20284;-84
2021/11/17 08:38:22;;;;;;;2.35;2.15;;;;;;;;;;5076287;28;20181;-85
2021/11/17 08:40:54;;;;;;;2.67;2.47;;;;;;;;;;5075541;28;20192;-85
2021/11/17 08:43:22;;;;;;;3.80;2.83;;;;;;;;;;5076309;28;20216;-85
2021/11/17 08:45:51;;;;;;;2.58;2.38;;;;;;;;;;5079929;28;20861;-85
2021/11/17 08:48:22;;;;;;;1.95;1.80;;;;;;;;;;5080003;28;20627;-84
2021/11/17 08:50:55;;;;;;;2.22;2.03;;;;;;;;;;5080119;28;20236;-85
2021/11/17 08:53:24;;;;;;;2.40;2.20;;;;;;;;;;5080078;28;20235;-83
2021/11/17 08:56:02;;;;;;;2.95;2.65;;;;;;;;;;5079811;28;20263;-85
2021/11/17 08:58:30;;;;;;;2.33;2.13;;;;;;;;;;5084657;28;20188;-85
2021/11/17 09:00:58;;;;;;;3.10;2.75;;;;;;;;;;5101197;28;20189;-85
2021/11/17 09:03:26;;;;;;;3.25;2.95;;;;;;;;;;5098433;28;20311;-86
2021/11/17 09:05:58;;;;;;;3.15;2.88;;;;;;;;;;5082473;28;20703;-85
2021/11/17 09:08:26;;;;;;;3.92;3.63;;;;;;;;;;5078398;28;20190;-85
2021/11/17 09:10:58;;;;;;;4.20;3.80;;;;;;;;;;5064751;28;20186;-85
2021/11/17 09:13:25;;;;;;;3.42;3.13;;;;;;;;;;5079086;28;20193;-85
2021/11/17 09:15:56;;;;;;;2.85;2.65;;;;;;;;;;5081035;28;20227;-85
2021/11/17 09:18:29;;;;;;;3.50;3.20;;;;;;;;;;5080376;28;20189;-85
2021/11/17 09:20:59;;;;;;;4.45;4.05;;;;;;;;;;5079920;28;20564;-86
2021/11/17 09:23:29;;;;;;;3.65;3.35;;;;;;;;;;5078618;28;20211;-84
2021/11/17 09:26:00;;;;;;;4.53;4.13;;;;;;;;;;5078860;28;20224;-84
2021/11/17 09:28:32;;;;;;;3.70;3.40;;;;;;;;;;5079972;28;20230;-85
2021/11/17 09:30:59;;;;;;;3.45;3.15;;;;;;;;;;5080232;28;20194;-84
2021/11/17 09:33:27;;;;;;;3.78;3.25;;;;;;;;;;5079641;28;20185;-84
2021/11/17 09:35:57;;;;;;;3.72;3.42;;;;;;;;;;5079870;28;20285;-86
2021/11/17 09:38:25;;;;;;;3.55;3.25;;;;;;;;;;5079535;28;20190;-85
2021/11/17 09:40:56;;;;;;;2.67;2.47;;;;;;;;;;5078945;28;20189;-85
2021/11/17 09:43:27;;;;;;;2.17;2.08;;;;;;;;;;5077752;28;20217;-84
2021/11/17 09:45:56;;;;;;;2.50;2.30;;;;;;;;;;5079218;28;20600;-86
2021/11/17 09:48:28;;;;;;;2.75;2.55;;;;;;;;;;5080652;28;20189;-87
2021/11/17 09:51:03;;;;;;;2.95;2.42;;;;;;;;;;5077507;28;20177;-86
2021/11/17 09:53:39;;;;;;;2.88;2.58;;;;;;;;;;5077621;28;20185;-86
2021/11/17 09:56:14;;;;;;;2.88;2.67;;;;;;;;;;5074064;28;20235;-86
2021/11/17 09:58:50;;;;;;;2.22;2.13;;;;;;;;;;5078448;28;20184;-86
2021/11/17 10:01:23;;;;;;;1.60;1.50;;;;;;;;;;5077850;28;20185;-86
2021/11/17 10:04:16;;;;;;;2.38;2.17;;;;;;;;;;5077715;28;20217;-87
2021/11/17 10:10:03;;;;;;;2.35;2.20;;;;;;;;;;5077856;28;20192;-86
2021/11/17 10:12:59;;;;;;;2.22;2.03;;;;;;;;;;5080180;28;20204;-87
2021/11/17 10:15:47;;;;;;;1.88;1.77;;;;;;;;;;5077741;28;20205;-86
2021/11/17 10:18:36;;;;;;;2.42;2.33;;;;;;;;;;5059868;28;20193;-87
2021/11/17 10:21:11;;;;;;;2.65;2.42;;;;;;;;;;5082867;28;20198;-86
2021/11/17 10:23:58;;;;;;;2.15;2.05;;;;;;;;;;5084610;28;20205;-88
2021/11/17 10:26:26;;;;;;;4.35;3.10;;;;;;;;;;5096579;28;20264;-86
2021/11/17 10:29:00;;;;;;;3.20;2.75;;;;;;;;;;5097149;28;20211;-87
2021/11/17 10:31:32;;;;;;;2.75;2.55;;;;;;;;;;5096686;28;20193;-86
2021/11/17 10:34:12;;;;;;;3.50;3.20;;;;;;;;;;5098642;28;20173;-88
2021/11/17 10:37:08;;;;;;;2.63;2.42;;;;;;;;;;5095026;28;20307;-89
2021/11/17 10:39:46;;;;;;;2.40;2.20;;;;;;;;;;5085054;28;20192;-88
2021/11/17 10:42:27;;;;;;;1.88;1.77;;;;;;;;;;5099754;28;20208;-87
2021/11/17 10:44:57;;;;;;;2.10;2.00;;;;;;;;;;5099376;28;20197;-89
2021/11/17 10:47:35;;;;;;;2.53;2.33;;;;;;;;;;5098156;28;20213;-89
2021/11/17 10:50:19;;;;;;;2.70;2.28;;;;;;;;;;5099617;28;20166;-88
2021/11/17 10:52:56;;;;;;;2.05;1.95;;;;;;;;;;5081248;28;20207;-88
2021/11/17 10:55:36;;;;;;;2.40;2.20;;;;;;;;;;5075550;28;20192;-88
2021/11/17 10:58:24;;;;;;;1.33;1.33;;;;;;;;;;5075688;28;20282;-88
2021/11/17 11:01:12;;;;;;;2.45;2.25;;;;;;;;;;5074889;28;20209;-88
2021/11/17 11:03:56;;;;;;;2.60;2.40;;;;;;;;;;5074381;28;20304;-88
2021/11/17 11:06:28;;;;;;;2.20;2.00;;;;;;;;;;5076699;28;20224;-86
2021/11/17 11:09:05;;;;;;;2.28;2.10;;;;;;;;;;5077157;28;20804;-82
2021/11/17 11:11:38;;;;;;;2.95;2.72;;;;;;;;;;5078891;28;20204;-85
2021/11/17 11:14:12;;;;;;;2.28;2.10;;;;;;;;;;5083821;28;20197;-84
2021/11/17 11:16:43;;;;;;;3.55;3.25;;;;;;;;;;5076836;28;20217;-84
2021/11/17 11:19:33;;;;;;;2.70;2.50;;;;;;;;;;5076210;28;20193;-87
2021/11/17 11:22:10;;;;;;;2.30;2.13;;;;;;;;;;5074286;28;20177;-87
2021/11/17 11:25:34;;;;;;;3.13;2.83;;;;;;;;;;5073718;28;20209;-88
2021/11/17 11:28:34;;;;;;;2.70;2.50;;;;;;;;;;5064010;28;20205;-88
2021/11/17 11:31:41;;;;;;;3.13;2.03;;;;;;;;;;5074277;28;20201;-87
2021/11/17 11:34:43;;;;;;;3.63;3.20;;;;;;;;;;5074065;28;20561;-88
2021/11/17 11:37:29;;;;;;;4.68;2.95;;;;;;;;;;5076967;28;20208;-88
2021/11/17 11:39:58;;;;;;;3.53;3.22;;;;;;;;;;5029862;28;20287;-87
2021/11/17 11:42:40;;;;;;;3.47;3.17;;;;;;;;;;5073629;28;20196;-87
2021/11/17 11:45:41;;;;;;;3.78;3.42;;;;;;;;;;5073356;28;20311;-87
2021/11/17 11:48:11;;;;;;;4.38;3.97;;;;;;;;;;5073542;28;20196;-87
2021/11/17 11:50:58;;;;;;;4.07;3.70;;;;;;;;;;5074314;28;21013;-87
2021/11/17 11:54:14;;;;;;;4.32;3.92;;;;;;;;;;5073501;28;20201;-88
2021/11/17 11:56:51;;;;;;;2.75;2.55;;;;;;;;;;5073530;28;20290;-87
2021/11/17 11:59:25;;;;;;;3.40;3.10;;;;;;;;;;5073543;28;20204;-87
2021/11/17 12:02:08;;;;;;;3.58;3.28;;;;;;;;;;5073262;28;20257;-88
2021/11/17 12:04:40;;;;;;;3.55;3.25;;;;;;;;;;5073438;28;20217;-88
2021/11/17 12:07:12;;;;;;;4.10;3.70;;;;;;;;;;5072992;28;20227;-87
2021/11/17 12:09:57;;;;;;;3.40;3.17;;;;;;;;;;5073521;28;20677;-87
2021/11/17 12:12:30;;;;;;;3.13;2.83;;;;;;;;;;5073417;28;20265;-87
2021/11/17 12:15:24;;;;;;;2.95;2.70;;;;;;;;;;5073352;28;20197;-88
2021/11/17 12:18:10;;;;;;;3.20;3.00;;;;;;;;;;5073238;28;20203;-87
2021/11/17 12:20:43;;;;;;;3.92;3.50;;;;;;;;;;5073221;28;20204;-87
2021/11/17 12:23:24;;;;;;;3.50;3.00;;;;;;;;;;5073697;28;20553;-87
2021/11/17 12:26:07;;;;;;;2.70;2.50;;;;;;;;;;5073118;28;20225;-88
2021/11/17 12:28:45;;;;;;;2.72;2.53;;;;;;;;;;5072772;28;20670;-87
2021/11/17 12:31:21;;;;;;;2.30;2.20;;;;;;;;;;5072738;28;20673;-88
2021/11/17 12:34:02;;;;;;;2.47;2.28;;;;;;;;;;5073073;28;20580;-88
2021/11/17 12:36:34;;;;;;;2.95;2.65;;;;;;;;;;5072847;28;20220;-87
2021/11/17 12:39:16;;;;;;;1.95;1.83;;;;;;;;;;5072517;28;20862;-87
2021/11/17 12:41:44;;;;;;;2.65;2.45;;;;;;;;;;5073326;28;20196;-87
2021/11/17 12:44:27;;;;;;;2.17;1.92;;;;;;;;;;5072395;28;20220;-87
2021/11/17 12:47:05;;;;;;;2.22;2.03;;;;;;;;;;5072720;28;20219;-88
2021/11/17 12:49:37;;;;;;;2.25;2.15;;;;;;;;;;5072727;28;20203;-88
2021/11/17 12:52:12;;;;;;;2.67;2.47;;;;;;;;;;5072685;28;20209;-89
2021/11/17 12:54:45;;;;;;;1.95;1.85;;;;;;;;;;5072595;28;20192;-87
2021/11/17 12:57:26;;;;;;;1.70;1.60;;;;;;;;;;5072933;28;20229;-87
2021/11/17 12:59:58;;;;;;;2.05;1.95;;;;;;;;;;5072937;28;20205;-87
2021/11/17 13:02:43;;;;;;;2.17;2.08;;;;;;;;;;5072142;28;20593;-88
2021/11/17 13:05:24;;;;;;;1.80;1.70;;;;;;;;;;5072307;28;20216;-87
2021/11/17 13:07:59;;;;;;;1.90;1.63;;;;;;;;;;5072097;28;20207;-87
2021/11/17 13:10:35;;;;;;;2.05;1.92;;;;;;;;;;5072394;28;20221;-88
2021/11/17 13:13:16;;;;;;;2.50;2.30;;;;;;;;;;5071559;28;20201;-87
2021/11/17 13:16:00;;;;;;;2.35;1.90;;;;;;;;;;5072103;28;20220;-86
2021/11/17 13:18:34;;;;;;;1.85;1.75;;;;;;;;;;5072513;28;20291;-88
2021/11/17 13:21:15;;;;;;;2.45;2.25;;;;;;;;;;5072050;28;20280;-87
2021/11/17 13:23:47;;;;;;;2.38;2.17;;;;;;;;;;5072144;28;20201;-87
2021/11/17 13:26:29;;;;;;;2.30;2.20;;;;;;;;;;5071766;28;20220;-87
2021/11/17 13:29:17;;;;;;;2.60;2.38;;;;;;;;;;5072187;28;20226;-88
2021/11/17 13:31:46;;;;;;;4.00;2.38;;;;;;;;;;5074540;28;20197;-87
2021/11/17 13:34:27;;;;;;;2.05;1.95;;;;;;;;;;5075353;28;20197;-87
2021/11/17 13:37:13;;;;;;;1.98;1.88;;;;;;;;;;5075404;28;20318;-87
2021/11/17 13:39:41;;;;;;;2.30;2.17;;;;;;;;;;5075308;28;20204;-88
2021/11/17 13:42:09;;;;;;;2.50;2.30;;;;;;;;;;5075384;28;20193;-87
2021/11/17 13:44:38;;;;;;;3.17;2.15;;;;;;;;;;5075406;28;20221;-87
2021/11/17 13:47:11;;;;;;;2.25;2.15;;;;;;;;;;5074889;28;20209;-87
2021/11/17 13:49:41;;;;;;;3.38;3.08;;;;;;;;;;5075306;28;20204;-87
2021/11/17 13:52:11;;;;;;;2.95;2.65;;;;;;;;;;5075504;28;20659;-87
2021/11/17 13:54:39;;;;;;;3.33;3.03;;;;;;;;;;5075290;28;20181;-88
2021/11/17 13:57:09;;;;;;;2.40;2.25;;;;;;;;;;5074994;28;20232;-88
2021/11/17 13:59:37;;;;;;;3.00;2.80;;;;;;;;;;5074999;28;20670;-87
2021/11/17 14:02:06;;;;;;;3.20;2.88;;;;;;;;;;5074981;28;20193;-88
2021/11/17 14:04:34;;;;;;;2.30;2.20;;;;;;;;;;5074994;28;20221;-88
2021/11/17 14:07:01;;;;;;;2.15;2.05;;;;;;;;;;5074964;28;20213;-87
2021/11/17 14:09:30;;;;;;;2.78;2.58;;;;;;;;;;5075102;28;20193;-87
2021/11/17 14:11:59;;;;;;;3.22;2.83;;;;;;;;;;5074927;28;20283;-87
2021/11/17 14:14:27;;;;;;;3.63;3.33;;;;;;;;;;5075285;28;20200;-87
2021/11/17 14:16:55;;;;;;;3.70;3.40;;;;;;;;;;5074914;28;20248;-87
2021/11/17 14:19:24;;;;;;;3.40;3.10;;;;;;;;;;5074848;28;20193;-88
2021/11/17 14:21:52;;;;;;;3.13;2.88;;;;;;;;;;5074519;28;20215;-87
2021/11/17 14:24:20;;;;;;;3.78;3.38;;;;;;;;;;5074943;28;20285;-87
2021/11/17 14:26:50;;;;;;;2.05;1.95;;;;;;;;;;5072565;28;20221;-87
2021/11/17 14:29:21;;;;;;;2.25;2.05;;;;;;;;;;5074313;28;20193;-88
2021/11/17 14:31:54;;;;;;;2.50;2.30;;;;;;;;;;5074406;28;20659;-88
2021/11/17 14:34:23;;;;;;;3.00;2.80;;;;;;;;;;5073781;28;20212;-87
2021/11/17 14:36:57;;;;;;;4.00;3.35;;;;;;;;;;5074108;28;20220;-88
2021/11/17 14:39:25;;;;;;;3.05;2.85;;;;;;;;;;5074229;28;20204;-88
2021/11/17 14:41:52;;;;;;;1.90;1.80;;;;;;;;;;5073707;28;20203;-88
2021/11/17 14:44:19;;;;;;;1.75;1.65;;;;;;;;;;5074349;28;20565;-88
2021/11/17 14:46:47;;;;;;;2.63;2.42;;;;;;;;;;5073504;28;20702;-87
2021/11/17 14:49:14;;;;;;;2.35;2.25;;;;;;;;;;5074292;28;20201;-87
2021/11/17 14:51:43;;;;;;;2.10;2.00;;;;;;;;;;5073914;28;20215;-88
2021/11/17 14:54:11;;;;;;;2.83;2.63;;;;;;;;;;5074072;28;20204;-88
2021/11/17 14:56:40;;;;;;;1.95;1.85;;;;;;;;;;5073858;28;20225;-87
2021/11/17 14:59:08;;;;;;;1.55;1.45;;;;;;;;;;5074688;28;20199;-88
2021/11/17 15:01:39;;;;;;;2.00;1.90;;;;;;;;;;5074878;28;20178;-88
2021/11/17 15:04:07;;;;;;;2.03;1.92;;;;;;;;;;5074845;28;20551;-88
2021/11/17 15:06:36;;;;;;;1.70;1.60;;;;;;;;;;5074880;28;20714;-88
2021/11/17 15:09:09;;;;;;;1.85;1.65;;;;;;;;;;5075106;28;20208;-88
2021/11/17 15:11:48;;;;;;;2.10;1.85;;;;;;;;;;5074754;28;20204;-88
2021/11/17 15:14:17;;;;;;;2.95;2.58;;;;;;;;;;5074579;28;20193;-88
2021/11/17 15:16:45;;;;;;;3.47;3.17;;;;;;;;;;5074867;28;20588;-88
2021/11/17 15:19:13;;;;;;;3.60;3.30;;;;;;;;;;5074900;28;20209;-88
2021/11/17 15:21:41;;;;;;;3.47;3.17;;;;;;;;;;5074693;28;20661;-87
2021/11/17 15:24:10;;;;;;;3.65;3.35;;;;;;;;;;5074635;28;20573;-88
2021/11/17 15:26:49;;;;;;;3.72;3.42;;;;;;;;;;5074387;28;20244;-88
2021/11/17 15:29:18;;;;;;;4.50;3.95;;;;;;;;;;5074162;28;20219;-88
2021/11/17 15:31:45;;;;;;;4.15;3.78;;;;;;;;;;5074317;28;20211;-88
2021/11/17 15:34:13;;;;;;;7.70;6.95;;;;;;;;;;5073119;28;20197;-88
2021/11/17 15:36:41;;;;;;;5.32;4.82;;;;;;;;;;5073155;28;20216;-88
2021/11/17 15:39:10;;;;;;;4.28;3.88;;;;;;;;;;5073348;28;20190;-88
2021/11/17 15:41:40;;;;;;;3.50;3.20;;;;;;;;;;5073052;28;20209;-88
2021/11/17 15:44:08;;;;;;;3.03;2.72;;;;;;;;;;5073136;28;20197;-88
2021/11/17 15:46:37;;;;;;;2.70;2.50;;;;;;;;;;5072778;28;20240;-88
2021/11/17 15:49:05;;;;;;;2.72;2.53;;;;;;;;;;5072573;28;20683;-88
2021/11/17 15:51:35;;;;;;;3.05;2.75;;;;;;;;;;5072680;28;20212;-88
2021/11/17 15:54:03;;;;;;;3.35;3.08;;;;;;;;;;5072639;28;20205;-87
2021/11/17 15:56:34;;;;;;;3.63;2.60;;;;;;;;;;5072560;28;20603;-88
2021/11/17 15:59:03;;;;;;;3.38;3.08;;;;;;;;;;5072944;28;20212;-88
2021/11/17 16:01:30;;;;;;;3.80;3.50;;;;;;;;;;5072851;28;20201;-88
2021/11/17 16:03:58;;;;;;;4.82;4.13;;;;;;;;;;5072935;28;20569;-88
2021/11/17 16:06:31;;;;;;;8.23;5.65;;;;;;;;;;5072522;28;20228;-88
2021/11/17 16:08:59;;;;;;;4.57;4.13;;;;;;;;;;5072802;28;20294;-88
2021/11/17 16:11:27;;;;;;;7.82;6.63;;;;;;;;;;5072658;28;20200;-88
2021/11/17 16:13:57;;;;;;;7.90;6.65;;;;;;;;;;5072516;28;20204;-88
2021/11/17 16:16:25;;;;;;;9.85;8.82;;;;;;;;;;5072277;28;20698;-88
2021/11/17 16:18:53;;;;;;;7.05;6.35;;;;;;;;;;5072752;28;20197;-88
2021/11/17 16:21:21;;;;;;;5.93;4.55;;;;;;;;;;5072651;28;20554;-88
2021/11/17 16:26:37;;;;;;;3.88;3.47;;;;;;;;;;5072365;28;20231;-88
2021/11/17 16:29:06;;;;;;;3.40;3.10;;;;;;;;;;5072552;28;20207;-88
2021/11/17 16:31:36;;;;;;;4.10;3.75;;;;;;;;;;5072234;28;20205;-88
2021/11/17 16:34:05;;;;;;;3.25;3.05;;;;;;;;;;5072504;28;20644;-87
2021/11/17 16:36:36;;;;;;;3.80;3.47;;;;;;;;;;5072865;28;20570;-88
2021/11/17 16:39:05;;;;;;;3.10;2.90;;;;;;;;;;5072420;28;20207;-88
2021/11/17 16:41:33;;;;;;;3.83;3.53;;;;;;;;;;5072534;28;20204;-87
2021/11/17 16:44:00;;;;;;;3.65;3.25;;;;;;;;;;5072304;28;20193;-88
2021/11/17 16:46:29;;;;;;;2.92;2.50;;;;;;;;;;5071909;28;20235;-88
2021/11/17 16:48:57;;;;;;;8.02;6.90;;;;;;;;;;5072166;28;20188;-88
2021/11/17 16:51:26;;;;;;;6.35;4.32;;;;;;;;;;5072029;28;20197;-87
2021/11/17 16:53:54;;;;;;;6.32;4.35;;;;;;;;;;5072044;28;20284;-88
2021/11/17 16:56:21;;;;;;;5.05;3.83;;;;;;;;;;5071871;28;20229;-88
2021/11/17 16:58:49;;;;;;;3.53;2.90;;;;;;;;;;5071989;28;20197;-88
2021/11/17 17:01:16;;;;;;;2.80;2.50;;;;;;;;;;5072060;28;20227;-88
2021/11/17 17:03:47;;;;;;;3.15;2.83;;;;;;;;;;5072038;28;20185;-88
2021/11/17 17:06:19;;;;;;;2.65;2.45;;;;;;;;;;5074288;28;20231;-87
2021/11/17 17:08:46;;;;;;;3.42;2.85;;;;;;;;;;5076222;28;20204;-86
2021/11/17 17:11:14;;;;;;;2.60;2.40;;;;;;;;;;5075836;28;20304;-87
2021/11/17 17:13:44;;;;;;;3.92;3.60;;;;;;;;;;5076210;28;20212;-86
2021/11/17 17:16:12;;;;;;;6.05;4.72;;;;;;;;;;5075896;28;20216;-87
2021/11/17 17:18:40;;;;;;;3.78;3.40;;;;;;;;;;5075907;28;20209;-87
2021/11/17 17:21:11;;;;;;;3.47;3.22;;;;;;;;;;5075983;28;20190;-86
2021/11/17 17:23:42;;;;;;;5.80;5.20;;;;;;;;;;5076202;28;20205;-88
2021/11/17 17:26:12;;;;;;;8.95;6.28;;;;;;;;;;5075490;28;20229;-87
2021/11/17 17:28:40;;;;;;;11.13;7.10;;;;;;;;;;5075559;28;20581;-87
2021/11/17 17:31:10;;;;;;;9.35;6.30;;;;;;;;;;5074988;28;20197;-88
2021/11/17 17:33:40;;;;;;;4.25;3.58;;;;;;;;;;5075322;28;20201;-87
2021/11/17 17:36:11;;;;;;;3.50;3.03;;;;;;;;;;5074966;28;20228;-88
2021/11/17 17:38:40;;;;;;;4.72;3.40;;;;;;;;;;5075385;28;20200;-88
2021/11/17 17:41:10;;;;;;;3.35;2.85;;;;;;;;;;5075450;28;20196;-88
2021/11/17 17:43:38;;;;;;;2.58;2.38;;;;;;;;;;5075615;28;20662;-88
2021/11/17 17:46:07;;;;;;;3.13;2.20;;;;;;;;;;5075468;28;20221;-87
2021/11/17 17:48:35;;;;;;;2.78;2.53;;;;;;;;;;5075753;28;20221;-87
2021/11/17 17:51:03;;;;;;;3.22;2.92;;;;;;;;;;5075457;28;20193;-87
2021/11/17 17:53:34;;;;;;;3.70;3.40;;;;;;;;;;5075048;28;20212;-87
2021/11/17 17:56:03;;;;;;;5.18;4.78;;;;;;;;;;5074905;28;20221;-87
2021/11/17 17:58:30;;;;;;;4.55;4.15;;;;;;;;;;5074861;28;20197;-87
2021/11/17 18:00:59;;;;;;;3.85;3.00;;;;;;;;;;5074753;28;20200;-87
2021/11/17 18:03:29;;;;;;;2.88;2.65;;;;;;;;;;5074810;28;20582;-87
2021/11/17 18:05:56;;;;;;;3.78;3.47;;;;;;;;;;5074906;28;20220;-86
2021/11/17 18:08:24;;;;;;;3.30;3.00;;;;;;;;;;5074811;28;20247;-87
2021/11/17 18:10:57;;;;;;;3.10;2.80;;;;;;;;;;5074725;28;20718;-87
2021/11/17 18:13:27;;;;;;;3.75;3.30;;;;;;;;;;5074448;28;20197;-87
2021/11/17 18:15:55;;;;;;;6.22;5.07;;;;;;;;;;5073935;28;20268;-87
2021/11/17 18:18:24;;;;;;;3.72;3.42;;;;;;;;;;5074621;28;20201;-87
2021/11/17 18:20:54;;;;;;;4.35;3.92;;;;;;;;;;5074463;28;20212;-87